Time;durP1;ratioP1;P1;durP2;ratioP2;P2;SDS_P1;SDS_P2;PMS_P1;PMS_P2;Temp;Humidity;BMP_temperature;BMP_pressure;BME280_temperature;BME280_humidity;BME280_pressure;Samples;Min_cycle;Max_cycle;Signal;HPM_P1;HPM_P2
2023/03/26 00:01:26;;;;;;;10.77;3.20;;;8.50;1.00;;;;;;4970063;28;20437;-84
2023/03/26 00:03:58;;;;;;;6.67;2.60;;;8.50;1.00;;;;;;4969337;28;20400;-85
2023/03/26 00:06:30;;;;;;;8.93;3.30;;;8.60;1.00;;;;;;4951388;28;21039;-85
2023/03/26 00:09:00;;;;;;;8.87;3.20;;;8.50;1.00;;;;;;4954334;28;20454;-85
2023/03/26 00:11:30;;;;;;;6.53;2.80;;;8.40;1.00;;;;;;4952447;28;20474;-86
2023/03/26 00:14:16;;;;;;;8.00;3.00;;;8.40;1.00;;;;;;4952011;28;20441;-84
2023/03/26 00:24:51;;;;;;;7.93;3.17;;;8.30;1.00;;;;;;4984373;23;20425;-85
2023/03/26 00:27:21;;;;;;;8.13;3.20;;;8.20;1.00;;;;;;4979529;28;20501;-86
2023/03/26 00:29:48;;;;;;;6.77;2.90;;;8.20;1.00;;;;;;4973486;28;20444;-84
2023/03/26 00:32:15;;;;;;;7.00;2.83;;;8.30;1.00;;;;;;4971897;28;20476;-84
2023/03/26 00:34:45;;;;;;;6.60;3.00;;;8.30;1.00;;;;;;4975396;28;21192;-85
2023/03/26 00:37:13;;;;;;;7.40;2.87;;;8.30;1.00;;;;;;4968572;28;20491;-85
2023/03/26 00:39:41;;;;;;;7.60;2.70;;;8.30;1.00;;;;;;4972737;28;21263;-84
2023/03/26 00:42:13;;;;;;;6.10;2.60;;;8.30;1.00;;;;;;4978207;28;20463;-86
2023/03/26 00:44:40;;;;;;;7.23;2.20;;;8.30;1.00;;;;;;4978083;28;20456;-84
2023/03/26 00:47:08;;;;;;;6.30;2.50;;;8.30;1.00;;;;;;4971104;28;20448;-84
2023/03/26 00:49:35;;;;;;;7.87;2.53;;;8.30;1.00;;;;;;4980990;28;20443;-84
2023/03/26 00:52:07;;;;;;;9.17;4.13;;;8.30;1.00;;;;;;4973761;28;20436;-84
2023/03/26 00:54:34;;;;;;;9.13;2.50;;;8.30;1.00;;;;;;4973820;28;21715;-85
2023/03/26 00:59:44;;;;;;;6.23;2.10;;;8.40;1.00;;;;;;5286008;23;20417;-83
2023/03/26 02:42:21;;;;;;;6.37;1.97;;;7.50;1.00;;;;;;4852245;29;21011;-79
2023/03/26 04:03:07;;;;;;;7.37;2.50;;;8.10;1.00;;;;;;4935641;28;20451;-81
2023/03/26 04:14:40;;;;;;;8.90;3.53;;;8.20;1.00;;;;;;4935972;28;20468;-81
2023/03/26 04:43:02;;;;;;;7.40;2.27;;;8.30;1.00;;;;;;4942668;28;20442;-81
2023/03/26 04:45:33;;;;;;;6.00;2.33;;;8.30;1.00;;;;;;4942765;28;21251;-80
2023/03/26 04:48:27;;;;;;;7.67;3.03;;;8.20;1.00;;;;;;4929710;28;20454;-81
2023/03/26 04:51:33;;;;;;;9.13;2.27;;;8.20;1.00;;;;;;4940373;28;20553;-82
2023/03/26 05:06:29;;;;;;;6.37;1.80;;;8.00;1.00;;;;;;5027440;23;20462;-80
2023/03/26 05:08:56;;;;;;;5.50;1.93;;;8.00;1.00;;;;;;4944655;28;20481;-79
2023/03/26 05:11:23;;;;;;;6.93;1.57;;;8.10;1.00;;;;;;4945629;28;20469;-78
2023/03/26 05:13:52;;;;;;;6.37;1.83;;;8.10;1.00;;;;;;4945296;28;20481;-78
2023/03/26 05:16:20;;;;;;;6.90;1.83;;;8.20;1.00;;;;;;4949351;28;20457;-79
2023/03/26 05:18:47;;;;;;;8.33;2.50;;;8.20;1.00;;;;;;4945754;28;21377;-79
2023/03/26 05:21:14;;;;;;;6.37;2.10;;;8.20;1.00;;;;;;4946012;28;20489;-79
2023/03/26 05:23:42;;;;;;;5.77;2.40;;;8.30;1.00;;;;;;4948613;28;20484;-78
2023/03/26 05:26:10;;;;;;;6.53;2.37;;;8.30;1.00;;;;;;4947246;28;20480;-78
2023/03/26 05:28:37;;;;;;;6.73;2.17;;;8.40;1.00;;;;;;4945953;28;20468;-80
2023/03/26 05:31:05;;;;;;;6.47;2.77;;;8.40;1.00;;;;;;4949342;28;20464;-79
2023/03/26 05:33:35;;;;;;;7.40;2.30;;;8.40;1.00;;;;;;4951924;28;21067;-79
2023/03/26 05:36:05;;;;;;;7.93;2.60;;;8.40;1.00;;;;;;4947014;28;21343;-78
2023/03/26 05:38:33;;;;;;;6.10;2.20;;;8.40;1.00;;;;;;4950518;28;20507;-78
2023/03/26 05:41:04;;;;;;;6.20;2.40;;;8.50;1.00;;;;;;4950954;28;20465;-78
2023/03/26 05:43:31;;;;;;;6.50;2.43;;;8.50;1.00;;;;;;4951262;28;20481;-79
2023/03/26 05:45:59;;;;;;;6.90;2.10;;;8.50;1.00;;;;;;4942334;28;20477;-79
2023/03/26 05:48:26;;;;;;;7.33;2.47;;;8.50;1.00;;;;;;4946947;28;20558;-78
2023/03/26 05:50:55;;;;;;;6.57;2.20;;;8.50;1.00;;;;;;4944093;28;20473;-78
2023/03/26 05:53:24;;;;;;;8.73;2.30;;;8.50;1.00;;;;;;4950826;28;20508;-78
2023/03/26 05:55:56;;;;;;;6.07;2.47;;;8.50;1.00;;;;;;4948590;28;21171;-78
2023/03/26 05:58:25;;;;;;;7.43;2.50;;;8.60;1.00;;;;;;4946566;28;20466;-79
2023/03/26 06:00:58;;;;;;;7.97;2.20;;;8.60;1.00;;;;;;4945901;28;20474;-79
2023/03/26 06:03:25;;;;;;;10.23;2.50;;;8.70;1.00;;;;;;4941263;28;21417;-78
2023/03/26 06:05:54;;;;;;;9.10;2.77;;;8.70;1.00;;;;;;4944809;28;20518;-78
2023/03/26 06:08:21;;;;;;;6.47;2.50;;;8.70;1.00;;;;;;4943527;28;21300;-78
2023/03/26 06:10:49;;;;;;;7.63;2.30;;;8.60;1.00;;;;;;4945572;28;20488;-79
2023/03/26 06:13:18;;;;;;;6.53;2.03;;;8.50;1.00;;;;;;4949070;28;21366;-79
2023/03/26 06:15:48;;;;;;;6.93;2.73;;;8.50;1.00;;;;;;4948169;28;20460;-79
2023/03/26 06:18:18;;;;;;;6.40;1.97;;;8.50;1.00;;;;;;4947700;28;20485;-79
2023/03/26 06:20:46;;;;;;;6.43;2.27;;;8.50;1.00;;;;;;4948092;28;20541;-79
2023/03/26 06:23:17;;;;;;;6.20;2.50;;;8.50;1.00;;;;;;4949432;28;20476;-79
2023/03/26 06:25:45;;;;;;;6.20;2.00;;;8.60;1.00;;;;;;4943984;28;20458;-79
2023/03/26 06:28:12;;;;;;;10.03;3.47;;;8.60;1.00;;;;;;4947261;28;21389;-79
2023/03/26 06:30:40;;;;;;;9.30;2.60;;;8.60;1.00;;;;;;4948903;28;20548;-79
2023/03/26 06:33:08;;;;;;;7.23;2.20;;;8.60;1.00;;;;;;4949253;28;20479;-79
2023/03/26 06:35:36;;;;;;;7.43;2.10;;;8.70;1.00;;;;;;4953831;28;20461;-79
2023/03/26 06:38:03;;;;;;;7.20;2.10;;;8.70;1.00;;;;;;4948958;28;20548;-79
2023/03/26 06:40:30;;;;;;;6.27;2.40;;;8.80;1.00;;;;;;4952358;28;20477;-79
2023/03/26 06:42:59;;;;;;;6.43;2.13;;;8.80;1.00;;;;;;4950647;28;20472;-79
2023/03/26 06:45:26;;;;;;;6.30;2.00;;;8.80;1.00;;;;;;4951138;28;20552;-78
2023/03/26 06:47:54;;;;;;;6.20;2.27;;;8.70;1.00;;;;;;4940666;28;20460;-80
2023/03/26 06:50:22;;;;;;;6.43;2.23;;;8.70;1.00;;;;;;4948647;28;20519;-80
2023/03/26 06:52:50;;;;;;;6.17;2.10;;;8.70;1.00;;;;;;4955192;28;21242;-79
2023/03/26 06:55:17;;;;;;;6.93;2.20;;;8.70;1.00;;;;;;4954064;28;20543;-78
2023/03/26 06:57:47;;;;;;;7.27;2.40;;;8.60;1.00;;;;;;4944304;28;20500;-78
2023/03/26 07:00:15;;;;;;;6.27;2.30;;;8.40;1.00;;;;;;4938283;28;20511;-79
2023/03/26 07:02:45;;;;;;;9.17;2.57;;;8.30;1.00;;;;;;4951405;28;20504;-79
2023/03/26 07:05:13;;;;;;;7.57;1.87;;;8.30;1.00;;;;;;4946702;28;20962;-79
2023/03/26 07:07:41;;;;;;;8.37;2.70;;;8.40;1.00;;;;;;4946878;28;20551;-79
2023/03/26 07:10:09;;;;;;;8.40;2.00;;;8.40;1.00;;;;;;4951074;28;20469;-79
2023/03/26 07:12:37;;;;;;;6.85;1.98;;;8.40;1.00;;;;;;4947916;28;20480;-81
2023/03/26 07:15:06;;;;;;;9.17;1.90;;;8.40;1.00;;;;;;4949969;28;20248;-79
2023/03/26 07:17:32;;;;;;;8.00;2.13;;;8.40;1.00;;;;;;4945354;28;20461;-78
2023/03/26 07:20:00;;;;;;;6.03;1.90;;;8.50;1.00;;;;;;4949581;28;20571;-77
2023/03/26 07:22:27;;;;;;;6.50;1.90;;;8.60;1.00;;;;;;4951107;28;20484;-79
2023/03/26 07:24:57;;;;;;;7.67;2.20;;;8.70;1.00;;;;;;4949185;28;20457;-79
2023/03/26 07:27:37;;;;;;;6.93;2.20;;;8.80;1.00;;;;;;4947727;28;20461;-79
2023/03/26 07:30:09;;;;;;;6.47;2.40;;;9.00;1.00;;;;;;4950552;28;20461;-78
2023/03/26 07:32:45;;;;;;;11.00;2.80;;;9.00;1.00;;;;;;4941591;28;20467;-78
2023/03/26 07:35:19;;;;;;;6.80;2.37;;;9.10;1.00;;;;;;4944352;28;20968;-78
2023/03/26 07:37:58;;;;;;;6.10;2.27;;;9.40;1.00;;;;;;4951739;28;20968;-78
2023/03/26 07:40:43;;;;;;;6.37;1.90;;;9.70;1.00;;;;;;4939570;28;20559;-78
2023/03/26 07:43:23;;;;;;;6.53;2.20;;;10.10;1.00;;;;;;4946995;28;20513;-78
2023/03/26 07:45:50;;;;;;;6.17;1.73;;;10.30;1.00;;;;;;4948094;28;21032;-79
2023/03/26 07:48:24;;;;;;;6.53;1.97;;;10.20;1.00;;;;;;4949873;28;20584;-78
2023/03/26 07:50:52;;;;;;;5.87;1.53;;;10.20;1.00;;;;;;4946471;28;20464;-78
2023/03/26 07:53:19;;;;;;;5.80;1.63;;;10.10;1.00;;;;;;4952062;28;20495;-79
2023/03/26 07:55:54;;;;;;;7.67;1.70;;;10.10;1.00;;;;;;4942164;28;22145;-79
2023/03/26 07:58:45;;;;;;;6.70;1.80;;;10.10;1.00;;;;;;4948324;28;20544;-79
2023/03/26 08:01:18;;;;;;;5.43;1.70;;;10.30;1.00;;;;;;4950134;28;20810;-79
2023/03/26 08:04:14;;;;;;;5.47;1.50;;;10.50;1.00;;;;;;4947927;28;20472;-79
2023/03/26 08:06:49;;;;;;;7.40;1.80;;;10.60;1.00;;;;;;4947193;28;20453;-79
2023/03/26 08:09:26;;;;;;;7.80;1.97;;;10.50;1.00;;;;;;4948110;28;20457;-79
2023/03/26 08:11:58;;;;;;;6.87;1.90;;;10.50;1.00;;;;;;4947271;28;20469;-79
2023/03/26 08:14:46;;;;;;;6.40;2.10;;;10.50;1.00;;;;;;4946120;28;20520;-80
2023/03/26 08:17:29;;;;;;;7.67;3.23;;;10.40;1.00;;;;;;4941525;28;20452;-78
2023/03/26 08:20:10;;;;;;;6.33;2.60;;;10.50;1.00;;;;;;4955910;28;21248;-81
2023/03/26 08:22:41;;;;;;;6.63;2.20;;;10.40;1.00;;;;;;4947215;28;20517;-79
2023/03/26 08:25:19;;;;;;;7.57;1.93;;;10.40;1.00;;;;;;4949936;28;20499;-79
2023/03/26 08:27:57;;;;;;;8.30;2.23;;;10.40;1.00;;;;;;4948955;28;20560;-79
2023/03/26 08:30:26;;;;;;;6.00;2.23;;;10.40;1.00;;;;;;4951107;28;20485;-79
2023/03/26 08:32:56;;;;;;;4.80;1.87;;;10.40;1.00;;;;;;4946842;28;20842;-79
2023/03/26 08:35:24;;;;;;;6.90;2.40;;;10.30;1.00;;;;;;4949201;28;20476;-79
2023/03/26 08:37:52;;;;;;;6.60;2.20;;;10.20;1.00;;;;;;4949430;28;20548;-79
2023/03/26 08:40:47;;;;;;;7.00;1.90;;;10.30;1.00;;;;;;4944287;28;20461;-79
2023/03/26 08:43:44;;;;;;;7.37;2.37;;;10.30;1.00;;;;;;4918593;28;20472;-78
2023/03/26 08:46:41;;;;;;;7.87;2.37;;;10.30;1.00;;;;;;4937957;28;20527;-78
2023/03/26 08:49:38;;;;;;;9.13;2.47;;;10.50;1.00;;;;;;4945859;28;20559;-76
2023/03/26 08:52:46;;;;;;;12.63;3.13;;;10.60;1.00;;;;;;4943710;28;20461;-76
2023/03/26 08:55:39;;;;;;;6.77;2.03;;;10.60;1.00;;;;;;4939366;28;20473;-77
2023/03/26 08:58:39;;;;;;;8.60;2.30;;;10.80;1.00;;;;;;4946906;28;20506;-76
2023/03/26 09:01:44;;;;;;;8.27;2.80;;;10.90;1.00;;;;;;4943082;28;20465;-76
2023/03/26 09:04:39;;;;;;;8.00;2.50;;;10.90;1.00;;;;;;4940447;28;20480;-77
2023/03/26 09:07:43;;;;;;;8.13;3.50;;;10.80;1.00;;;;;;4947388;28;20528;-77
2023/03/26 09:10:55;;;;;;;7.57;2.70;;;10.80;1.00;;;;;;4935357;28;21006;-77
2023/03/26 09:14:05;;;;;;;6.87;3.20;;;10.80;1.00;;;;;;4916363;28;20480;-77
2023/03/26 09:17:03;;;;;;;8.53;2.70;;;10.80;1.00;;;;;;4950036;28;21110;-77
2023/03/26 09:20:03;;;;;;;7.97;2.90;;;10.80;1.00;;;;;;4947234;28;20474;-77
2023/03/26 09:22:58;;;;;;;8.60;3.63;;;10.70;1.00;;;;;;4937787;28;20482;-76
2023/03/26 09:26:11;;;;;;;7.37;2.50;;;10.80;1.00;;;;;;4948229;28;20989;-76
2023/03/26 09:29:19;;;;;;;6.60;2.73;;;10.90;1.00;;;;;;4939653;28;20465;-78
2023/03/26 09:32:23;;;;;;;8.90;2.90;;;11.00;1.00;;;;;;4929568;28;20595;-77
2023/03/26 09:35:21;;;;;;;7.03;2.60;;;10.90;1.00;;;;;;4943144;28;20473;-76
2023/03/26 09:37:57;;;;;;;12.97;4.60;;;10.90;1.00;;;;;;4936978;28;20529;-77
2023/03/26 09:40:35;;;;;;;7.87;2.43;;;11.10;1.00;;;;;;4937469;28;20558;-76
2023/03/26 09:43:29;;;;;;;5.27;2.10;;;10.90;1.00;;;;;;4948843;28;20541;-75
2023/03/26 09:46:07;;;;;;;6.60;2.53;;;10.70;1.00;;;;;;4946553;28;20488;-76
2023/03/26 09:48:56;;;;;;;5.10;2.20;;;10.50;1.00;;;;;;4946098;28;20509;-77
2023/03/26 09:51:50;;;;;;;8.53;2.63;;;10.30;1.00;;;;;;4950229;28;21048;-77
2023/03/26 09:54:58;;;;;;;7.40;2.43;;;10.10;1.00;;;;;;4947765;28;20456;-77
2023/03/26 09:57:38;;;;;;;6.80;2.27;;;9.70;1.00;;;;;;4944311;28;20468;-76
2023/03/26 10:00:26;;;;;;;9.47;2.53;;;9.40;1.00;;;;;;4940904;28;20467;-76
2023/03/26 10:03:22;;;;;;;5.67;1.67;;;9.20;1.00;;;;;;4940199;28;20946;-75
2023/03/26 10:06:07;;;;;;;5.40;1.73;;;9.20;1.00;;;;;;4939515;28;20465;-77
2023/03/26 10:08:57;;;;;;;5.50;1.70;;;9.10;1.00;;;;;;4940026;28;20559;-76
2023/03/26 10:11:33;;;;;;;7.10;2.37;;;9.00;1.00;;;;;;4940816;28;21221;-77
2023/03/26 10:14:08;;;;;;;6.17;2.20;;;9.00;1.00;;;;;;4946447;28;20473;-77
2023/03/26 10:16:46;;;;;;;9.77;2.50;;;9.00;1.00;;;;;;4952651;28;21317;-77
2023/03/26 10:19:31;;;;;;;6.07;2.13;;;8.90;1.00;;;;;;4952783;28;20469;-78
2023/03/26 10:22:09;;;;;;;6.80;2.27;;;9.00;1.00;;;;;;4950154;28;20509;-77
2023/03/26 10:25:03;;;;;;;7.37;3.30;;;9.40;1.00;;;;;;4950733;28;20884;-77
2023/03/26 10:27:44;;;;;;;7.53;2.60;;;9.70;1.00;;;;;;4950185;28;20473;-77
2023/03/26 10:30:53;;;;;;;7.17;2.40;;;10.00;1.00;;;;;;4943056;28;20481;-76
2023/03/26 10:33:30;;;;;;;7.83;2.30;;;10.00;1.00;;;;;;4949599;28;20512;-78
2023/03/26 10:36:28;;;;;;;10.40;3.60;;;10.00;1.00;;;;;;4951259;28;20455;-76
2023/03/26 10:39:21;;;;;;;8.50;3.13;;;10.10;1.00;;;;;;4950628;28;20457;-77
2023/03/26 10:41:58;;;;;;;5.87;2.90;;;10.20;1.00;;;;;;4944670;28;20588;-75
2023/03/26 10:44:53;;;;;;;10.33;3.00;;;10.20;1.00;;;;;;4949658;28;20540;-76
2023/03/26 10:47:50;;;;;;;6.53;3.20;;;10.30;1.00;;;;;;4935244;28;20461;-76
2023/03/26 10:50:36;;;;;;;7.67;3.87;;;10.40;1.00;;;;;;4951567;28;20552;-76
2023/03/26 10:53:09;;;;;;;6.40;3.60;;;10.50;1.00;;;;;;4950895;28;20508;-76
2023/03/26 10:55:40;;;;;;;5.83;2.83;;;10.60;1.00;;;;;;4945750;28;20552;-76
2023/03/26 10:58:17;;;;;;;8.60;3.37;;;10.80;1.00;;;;;;4939339;28;20456;-76
2023/03/26 11:00:50;;;;;;;8.67;3.10;;;11.00;1.00;;;;;;4944560;28;20560;-76
2023/03/26 11:03:51;;;;;;;6.90;3.07;;;11.20;1.00;;;;;;4943683;28;20480;-77
2023/03/26 11:06:27;;;;;;;8.13;4.00;;;11.30;1.00;;;;;;4946370;28;20476;-77
2023/03/26 11:09:01;;;;;;;8.27;3.30;;;11.40;1.00;;;;;;4945684;28;20488;-77
2023/03/26 11:11:37;;;;;;;8.77;3.10;;;11.50;1.00;;;;;;4948440;28;20840;-75
2023/03/26 11:14:15;;;;;;;11.70;3.80;;;11.50;1.00;;;;;;4947179;28;20476;-77
2023/03/26 11:16:57;;;;;;;8.47;3.20;;;11.60;1.00;;;;;;4952529;28;20857;-76
2023/03/26 11:19:31;;;;;;;10.40;4.83;;;11.60;1.00;;;;;;4951786;28;20474;-76
2023/03/26 11:22:08;;;;;;;7.80;3.63;;;11.50;1.00;;;;;;4954283;28;20462;-77
2023/03/26 11:24:56;;;;;;;7.83;3.63;;;11.80;1.00;;;;;;4953318;28;20478;-76
2023/03/26 11:27:33;;;;;;;7.80;3.50;;;12.50;1.00;;;;;;4951000;28;21356;-77
2023/03/26 11:30:11;;;;;;;7.90;2.93;;;13.30;1.00;;;;;;4952156;28;20570;-75
2023/03/26 11:32:42;;;;;;;8.40;3.57;;;14.00;1.00;;;;;;4946704;28;21209;-78
2023/03/26 11:35:17;;;;;;;12.03;3.40;;;14.80;1.00;;;;;;4955787;28;20471;-75
2023/03/26 11:37:48;;;;;;;8.10;3.30;;;15.50;1.00;;;;;;4950541;28;20527;-76
2023/03/26 11:40:22;;;;;;;7.13;3.40;;;15.60;1.00;;;;;;4948800;28;20973;-76
2023/03/26 11:42:56;;;;;;;4.90;3.10;;;16.10;1.00;;;;;;4947219;28;21047;-76
2023/03/26 11:45:28;;;;;;;6.43;3.13;;;16.70;1.00;;;;;;4954444;28;20504;-74
2023/03/26 11:47:59;;;;;;;7.90;3.40;;;17.10;1.00;;;;;;4945513;28;20463;-77
2023/03/26 11:50:31;;;;;;;6.73;3.77;;;17.30;1.00;;;;;;4950269;28;20962;-77
2023/03/26 11:53:00;;;;;;;4.90;3.00;;;17.00;1.00;;;;;;4944295;28;20469;-76
2023/03/26 11:55:27;;;;;;;5.67;3.60;;;16.50;1.00;;;;;;4948728;28;20473;-77
2023/03/26 11:58:05;;;;;;;6.70;4.07;;;16.10;1.00;;;;;;4945601;28;20478;-77
2023/03/26 12:00:32;;;;;;;7.97;5.07;;;15.80;1.00;;;;;;4954932;28;20482;-76
2023/03/26 12:03:19;;;;;;;7.17;3.40;;;15.70;1.00;;;;;;4950169;28;20446;-77
2023/03/26 12:05:49;;;;;;;6.80;3.53;;;15.50;1.00;;;;;;4950239;28;20512;-76
2023/03/26 12:08:27;;;;;;;7.40;3.30;;;15.30;1.00;;;;;;4952911;28;20464;-76
2023/03/26 12:11:30;;;;;;;6.90;3.33;;;15.10;1.00;;;;;;4952793;28;20486;-76
2023/03/26 12:14:03;;;;;;;6.80;3.90;;;14.80;1.00;;;;;;4946505;28;20457;-76
2023/03/26 12:16:31;;;;;;;5.77;3.30;;;14.90;1.00;;;;;;4952225;28;20567;-76
2023/03/26 12:19:01;;;;;;;12.20;3.60;;;15.10;1.00;;;;;;4952365;28;20609;-76
2023/03/26 12:21:29;;;;;;;8.27;6.63;;;15.20;1.00;;;;;;4950329;28;20487;-76
2023/03/26 12:24:01;;;;;;;5.57;3.50;;;15.30;1.00;;;;;;4954179;28;20476;-75
2023/03/26 12:26:40;;;;;;;5.80;3.00;;;15.30;1.00;;;;;;4951230;28;20544;-75
2023/03/26 12:29:11;;;;;;;6.80;3.13;;;15.40;1.00;;;;;;4949758;28;20464;-77
2023/03/26 12:31:46;;;;;;;6.23;3.60;;;15.40;1.00;;;;;;4951285;28;20563;-78
2023/03/26 12:34:19;;;;;;;6.57;3.37;;;15.70;1.00;;;;;;4945756;28;20480;-77
2023/03/26 12:36:51;;;;;;;10.17;3.37;;;15.80;1.00;;;;;;4948094;28;20485;-76
2023/03/26 12:39:37;;;;;;;4.90;2.90;;;15.80;1.00;;;;;;4951975;28;20461;-78
2023/03/26 12:42:06;;;;;;;4.87;2.97;;;16.40;1.00;;;;;;4949881;28;20516;-75
2023/03/26 12:44:45;;;;;;;6.37;3.37;;;17.20;1.00;;;;;;4938050;28;20484;-75
2023/03/26 12:47:22;;;;;;;4.00;2.13;;;18.10;1.00;;;;;;4949776;28;20549;-76
2023/03/26 12:49:52;;;;;;;8.50;3.40;;;18.70;1.00;;;;;;4952179;28;20560;-77
2023/03/26 12:52:41;;;;;;;4.23;2.63;;;19.50;1.00;;;;;;4948835;28;20499;-76
2023/03/26 12:55:23;;;;;;;3.90;2.37;;;20.20;1.00;;;;;;4949461;28;20603;-76
2023/03/26 12:58:03;;;;;;;4.00;2.00;;;21.00;1.00;;;;;;4939414;28;20497;-77
2023/03/26 13:00:43;;;;;;;4.40;2.20;;;21.70;1.00;;;;;;4958455;28;20904;-76
2023/03/26 13:03:36;;;;;;;2.93;1.90;;;22.30;1.00;;;;;;4945675;28;20531;-76
2023/03/26 13:06:29;;;;;;;3.20;1.97;;;22.20;1.00;;;;;;4943091;28;20497;-76
2023/03/26 13:09:15;;;;;;;5.10;2.60;;;20.90;1.00;;;;;;4948449;28;20565;-77
2023/03/26 13:12:13;;;;;;;4.90;2.43;;;19.60;1.00;;;;;;4950352;28;20531;-76
2023/03/26 13:14:59;;;;;;;5.63;2.37;;;18.50;1.00;;;;;;4948480;28;20479;-76
2023/03/26 13:17:34;;;;;;;5.17;2.43;;;17.70;1.00;;;;;;4948979;28;20465;-76
2023/03/26 13:20:06;;;;;;;2.83;2.17;;;17.30;1.00;;;;;;4951535;28;20477;-77
2023/03/26 13:22:42;;;;;;;6.27;2.87;;;16.80;1.00;;;;;;4949988;28;20554;-76
2023/03/26 13:25:25;;;;;;;5.30;2.40;;;16.40;1.00;;;;;;4945328;28;21031;-75
2023/03/26 13:28:02;;;;;;;3.57;2.07;;;16.20;1.00;;;;;;4946355;28;20914;-77
2023/03/26 13:30:37;;;;;;;4.83;1.80;;;16.00;1.00;;;;;;4948776;28;20469;-77
2023/03/26 13:33:19;;;;;;;5.10;2.03;;;15.70;1.00;;;;;;4949962;28;20452;-76
2023/03/26 13:35:55;;;;;;;3.87;2.10;;;15.50;1.00;;;;;;4945989;28;20484;-76
2023/03/26 13:38:32;;;;;;;3.60;2.17;;;15.50;1.00;;;;;;4949330;28;20453;-76
2023/03/26 13:41:06;;;;;;;5.30;1.87;;;15.70;1.00;;;;;;4942433;28;20558;-77
2023/03/26 13:43:50;;;;;;;4.20;1.63;;;15.80;1.00;;;;;;4948419;28;20483;-76
2023/03/26 13:46:27;;;;;;;3.40;1.57;;;15.80;1.00;;;;;;4941981;28;20457;-76
2023/03/26 13:49:00;;;;;;;3.37;1.80;;;15.70;1.00;;;;;;4945554;28;20539;-76
2023/03/26 13:51:35;;;;;;;3.70;2.10;;;15.60;1.00;;;;;;4949046;28;20500;-75
2023/03/26 13:54:11;;;;;;;4.73;2.10;;;15.50;1.00;;;;;;4947275;28;20879;-76
2023/03/26 13:56:43;;;;;;;4.40;1.47;;;15.50;1.00;;;;;;4942700;28;20520;-77
2023/03/26 13:59:17;;;;;;;3.27;1.80;;;15.30;1.00;;;;;;4945703;28;20528;-75
2023/03/26 14:01:52;;;;;;;3.70;1.80;;;15.20;1.00;;;;;;4947961;28;20507;-76
2023/03/26 14:04:25;;;;;;;3.90;1.80;;;15.20;1.00;;;;;;4945630;28;20459;-76
2023/03/26 14:06:58;;;;;;;4.13;2.00;;;15.10;1.00;;;;;;4960922;28;20492;-76
2023/03/26 14:09:30;;;;;;;4.30;1.97;;;15.00;1.00;;;;;;4947450;28;20521;-77
2023/03/26 14:12:29;;;;;;;3.50;1.73;;;14.90;1.00;;;;;;4948667;28;20484;-76
2023/03/26 14:15:00;;;;;;;4.83;2.63;;;14.90;1.00;;;;;;4947955;28;20532;-77
2023/03/26 14:17:33;;;;;;;3.90;2.30;;;15.10;1.00;;;;;;4946872;28;20493;-77
2023/03/26 14:20:38;;;;;;;3.50;1.87;;;15.30;1.00;;;;;;4945986;28;21044;-76
2023/03/26 14:23:29;;;;;;;4.50;2.30;;;15.40;1.00;;;;;;4951077;28;20476;-76
2023/03/26 14:26:10;;;;;;;4.00;2.40;;;15.60;1.00;;;;;;4949440;28;20523;-77
2023/03/26 14:29:24;;;;;;;5.40;1.93;;;15.40;1.00;;;;;;4945756;28;20531;-76
2023/03/26 14:32:15;;;;;;;3.83;1.90;;;15.30;1.00;;;;;;4938103;28;20945;-76
2023/03/26 14:35:09;;;;;;;2.63;1.60;;;15.30;1.00;;;;;;4945129;28;20937;-76
2023/03/26 14:38:06;;;;;;;5.10;2.17;;;15.30;1.00;;;;;;4945932;28;20470;-76
2023/03/26 14:40:57;;;;;;;3.93;1.77;;;15.10;1.00;;;;;;4947644;28;20508;-77
2023/03/26 14:43:52;;;;;;;4.90;2.27;;;14.80;1.00;;;;;;4946021;28;20473;-77
2023/03/26 14:46:55;;;;;;;4.43;2.60;;;14.70;1.00;;;;;;4949439;28;20482;-77
2023/03/26 14:49:54;;;;;;;4.47;2.27;;;14.60;1.00;;;;;;4958501;28;21197;-86
2023/03/26 14:52:29;;;;;;;5.70;2.00;;;14.50;1.00;;;;;;4938823;28;20542;-85
2023/03/26 14:55:03;;;;;;;5.40;1.97;;;14.50;1.00;;;;;;4956392;28;20488;-85
2023/03/26 14:58:15;;;;;;;4.90;2.37;;;14.60;1.00;;;;;;4955971;28;20476;-86
2023/03/26 15:01:20;;;;;;;4.50;2.00;;;14.50;1.00;;;;;;4950969;28;20440;-87
2023/03/26 15:04:35;;;;;;;5.47;1.93;;;14.30;1.00;;;;;;4954653;28;20471;-86
2023/03/26 15:07:39;;;;;;;3.57;2.10;;;14.30;1.00;;;;;;4954311;28;20490;-87
2023/03/26 15:10:39;;;;;;;4.23;2.47;;;14.50;1.00;;;;;;4925488;28;20464;-84
2023/03/26 15:13:45;;;;;;;4.53;2.03;;;14.60;1.00;;;;;;4944136;28;20558;-85
2023/03/26 15:16:39;;;;;;;5.50;2.27;;;14.40;1.00;;;;;;4888482;29;20497;-86
2023/03/26 15:19:39;;;;;;;3.93;1.97;;;14.20;1.00;;;;;;4889768;29;20637;-86
2023/03/26 15:22:51;;;;;;;4.27;2.00;;;14.00;1.00;;;;;;4940804;28;20504;-84
2023/03/26 15:26:13;;;;;;;3.00;1.60;;;14.00;1.00;;;;;;4951039;28;20471;-84
2023/03/26 15:29:11;;;;;;;5.03;2.77;;;13.80;1.00;;;;;;4942468;28;20469;-85
2023/03/26 15:32:10;;;;;;;4.00;1.87;;;13.60;1.00;;;;;;4946606;28;20440;-84
2023/03/26 15:38:22;;;;;;;5.47;3.30;;;13.60;1.00;;;;;;4921373;28;20476;-85
2023/03/26 15:41:16;;;;;;;5.57;2.60;;;13.60;1.00;;;;;;4956289;28;20436;-85
2023/03/26 15:44:25;;;;;;;4.60;2.50;;;13.50;1.00;;;;;;4930059;28;20486;-85
2023/03/26 15:47:15;;;;;;;4.30;1.77;;;13.40;1.00;;;;;;4869401;29;20450;-84
2023/03/26 15:49:48;;;;;;;4.17;2.03;;;13.30;1.00;;;;;;4953200;28;20898;-86
2023/03/26 15:52:26;;;;;;;4.37;2.20;;;13.40;1.00;;;;;;4950500;28;20467;-86
2023/03/26 15:55:01;;;;;;;4.73;2.50;;;13.50;1.00;;;;;;4947856;28;20475;-86
2023/03/26 15:57:33;;;;;;;5.07;2.30;;;13.40;1.00;;;;;;4948478;28;20582;-86
2023/03/26 16:00:21;;;;;;;3.90;1.90;;;13.40;1.00;;;;;;4948441;28;20501;-86
2023/03/26 16:03:07;;;;;;;4.30;2.17;;;13.40;1.00;;;;;;4949321;28;20431;-85
2023/03/26 16:05:44;;;;;;;3.50;1.97;;;13.10;1.00;;;;;;4944354;28;20478;-85
2023/03/26 16:08:21;;;;;;;5.70;1.90;;;12.90;1.00;;;;;;4958060;28;20983;-84
2023/03/26 16:10:52;;;;;;;3.40;1.97;;;12.80;1.00;;;;;;4952476;28;20454;-84
2023/03/26 16:13:36;;;;;;;6.33;2.73;;;12.80;1.00;;;;;;4953933;28;20921;-84
2023/03/26 16:16:25;;;;;;;4.50;2.63;;;12.70;1.00;;;;;;4957379;28;20538;-84
2023/03/26 16:18:58;;;;;;;6.23;2.13;;;12.80;1.00;;;;;;4954269;28;20483;-86
2023/03/26 16:21:45;;;;;;;4.20;2.10;;;12.90;1.00;;;;;;4960067;28;20542;-84
2023/03/26 16:24:24;;;;;;;4.20;2.20;;;12.90;1.00;;;;;;4957106;28;21326;-84
2023/03/26 16:27:32;;;;;;;4.07;2.53;;;12.80;1.00;;;;;;4949039;28;20474;-85
2023/03/26 16:30:26;;;;;;;5.20;2.40;;;12.60;1.00;;;;;;4940487;28;20489;-86
2023/03/26 16:32:57;;;;;;;6.10;2.30;;;12.40;1.00;;;;;;4946070;28;20463;-85
2023/03/26 16:35:40;;;;;;;9.50;2.77;;;12.40;1.00;;;;;;4950395;28;20494;-85
2023/03/26 16:38:17;;;;;;;6.70;2.40;;;12.30;1.00;;;;;;4945711;28;20520;-86
2023/03/26 16:40:57;;;;;;;5.90;3.47;;;12.30;1.00;;;;;;4947149;28;20492;-84
2023/03/26 16:43:46;;;;;;;5.83;2.50;;;12.20;1.00;;;;;;4946153;28;20443;-87
2023/03/26 16:46:26;;;;;;;6.33;2.40;;;12.10;1.00;;;;;;4953643;28;20463;-86
2023/03/26 16:49:03;;;;;;;8.80;2.33;;;12.10;1.00;;;;;;4942532;28;20462;-85
2023/03/26 16:51:51;;;;;;;5.33;2.63;;;12.00;1.00;;;;;;4943522;28;20566;-86
2023/03/26 16:54:25;;;;;;;5.13;2.90;;;11.90;1.00;;;;;;4947012;28;20474;-85
2023/03/26 16:57:00;;;;;;;8.97;3.67;;;11.80;1.00;;;;;;4944805;28;20943;-86
2023/03/26 16:59:51;;;;;;;5.37;2.27;;;11.80;1.00;;;;;;4946995;28;20493;-85
2023/03/26 17:02:26;;;;;;;6.47;2.67;;;11.70;1.00;;;;;;4945173;28;20485;-85
2023/03/26 17:05:00;;;;;;;6.30;3.10;;;11.60;1.00;;;;;;4938265;28;20542;-84
2023/03/26 17:07:34;;;;;;;6.60;2.77;;;11.50;1.00;;;;;;4951099;28;20587;-87
2023/03/26 17:10:14;;;;;;;5.50;3.30;;;11.40;1.00;;;;;;4940629;28;20550;-84
2023/03/26 17:12:48;;;;;;;6.80;2.83;;;11.30;1.00;;;;;;4944615;28;20509;-83
2023/03/26 17:15:25;;;;;;;7.17;3.20;;;11.20;1.00;;;;;;4947685;28;20525;-85
2023/03/26 17:18:13;;;;;;;7.23;3.57;;;11.10;1.00;;;;;;4943407;28;20707;-85
2023/03/26 17:20:49;;;;;;;4.63;2.37;;;11.00;1.00;;;;;;4945411;28;21357;-82
2023/03/26 17:23:31;;;;;;;5.63;3.00;;;10.90;1.00;;;;;;4942163;28;20566;-84
2023/03/26 17:26:07;;;;;;;7.00;3.00;;;10.90;1.00;;;;;;4945912;28;20470;-84
2023/03/26 17:28:50;;;;;;;6.77;3.60;;;10.90;1.00;;;;;;4945438;28;20954;-82
2023/03/26 17:31:30;;;;;;;6.50;2.60;;;10.90;1.00;;;;;;4942749;28;20584;-83
2023/03/26 17:34:34;;;;;;;5.77;2.70;;;10.80;1.00;;;;;;4949192;28;20570;-84
2023/03/26 17:37:05;;;;;;;8.60;2.70;;;10.80;1.00;;;;;;4940401;28;21313;-83
2023/03/26 17:40:35;;;;;;;7.90;3.27;;;10.70;1.00;;;;;;4940830;28;20481;-84
2023/03/26 17:43:08;;;;;;;4.73;2.63;;;10.70;1.00;;;;;;4940724;28;20461;-83
2023/03/26 17:45:39;;;;;;;5.67;2.77;;;10.80;1.00;;;;;;4945043;28;20524;-83
2023/03/26 17:48:15;;;;;;;7.60;2.70;;;10.80;1.00;;;;;;4946799;28;20979;-82
2023/03/26 17:50:50;;;;;;;7.97;3.70;;;10.80;1.00;;;;;;4948772;28;20489;-83
2023/03/26 17:53:25;;;;;;;7.57;3.83;;;10.70;1.00;;;;;;4944575;28;20428;-84
2023/03/26 17:55:55;;;;;;;7.90;3.60;;;10.80;1.00;;;;;;4942427;28;20571;-83
2023/03/26 17:58:27;;;;;;;6.67;4.20;;;10.80;1.00;;;;;;4946265;28;20472;-83
2023/03/26 18:01:05;;;;;;;7.30;4.20;;;10.80;1.00;;;;;;4943929;28;20579;-84
2023/03/26 18:03:38;;;;;;;5.60;2.73;;;10.80;1.00;;;;;;4947898;28;21240;-83
2023/03/26 18:06:09;;;;;;;6.93;2.70;;;10.80;1.00;;;;;;4947988;28;20473;-83